Time;durP1;ratioP1;P1;durP2;ratioP2;P2;SDS_P1;SDS_P2;PMS_P1;PMS_P2;Temp;Humidity;BMP_temperature;BMP_pressure;BME280_temperature;BME280_humidity;BME280_pressure;Samples;Min_cycle;Max_cycle;Signal;HPM_P1;HPM_P2
2022/12/29 00:02:15;;;;;;;9.63;5.20;;;;;;;7.95;100.00;99807.41;4932708;29;20046;-74
2022/12/29 00:04:41;;;;;;;6.88;4.45;;;;;;;8.12;100.00;99809.09;4917041;29;20095;-74
2022/12/29 00:07:07;;;;;;;8.27;5.10;;;;;;;8.07;100.00;99808.75;4932679;29;20038;-74
2022/12/29 00:09:33;;;;;;;9.05;5.57;;;;;;;8.06;100.00;99818.69;4917354;29;20058;-74
2022/12/29 00:11:58;;;;;;;7.93;5.60;;;;;;;8.08;100.00;99794.25;4934265;29;20039;-74
2022/12/29 00:17:08;;;;;;;13.43;5.25;;;;;;;8.27;100.00;99783.13;4935192;29;20074;-74
2022/12/29 00:36:31;;;;;;;7.18;5.10;;;;;;;8.38;100.00;99758.53;4933696;29;20086;-75
2022/12/29 00:44:51;;;;;;;7.32;4.60;;;;;;;8.52;100.00;99754.28;4931255;29;20066;-75
2022/12/29 00:47:16;;;;;;;7.25;4.45;;;;;;;8.50;100.00;99752.78;4916550;29;20055;-75
2022/12/29 00:49:42;;;;;;;5.68;3.97;;;;;;;8.58;100.00;99759.00;4917650;29;20051;-75
2022/12/29 00:52:10;;;;;;;8.73;4.18;;;;;;;8.72;100.00;99749.34;4917518;29;20098;-75
2022/12/29 00:54:37;;;;;;;7.22;4.53;;;;;;;8.68;100.00;99748.03;4916915;29;20027;-75
2022/12/29 00:57:04;;;;;;;4.50;3.80;;;;;;;8.59;100.00;99759.84;4917358;29;20039;-75
2022/12/29 00:59:29;;;;;;;8.35;5.05;;;;;;;8.64;100.00;99747.53;4917641;29;20039;-75
2022/12/29 01:01:55;;;;;;;8.32;4.32;;;;;;;8.59;100.00;99749.06;4917102;29;20036;-75
2022/12/29 01:04:22;;;;;;;10.23;4.82;;;;;;;8.62;100.00;99748.72;4916642;29;20027;-75
2022/12/29 01:06:48;;;;;;;6.45;4.13;;;;;;;8.68;100.00;99753.44;4916308;29;20055;-74
2022/12/29 01:11:58;;;;;;;16.48;4.80;;;;;;;8.57;100.00;99734.91;4934196;29;20019;-74
2022/12/29 01:14:24;;;;;;;7.57;4.93;;;;;;;8.62;100.00;99740.63;4948258;29;20023;-74
2022/12/29 01:16:49;;;;;;;7.43;4.18;;;;;;;8.74;100.00;99730.28;4933411;29;20430;-75
2022/12/29 01:19:16;;;;;;;8.15;4.63;;;;;;;8.73;100.00;99729.44;4917575;29;20032;-75
2022/12/29 01:21:41;;;;;;;7.22;3.72;;;;;;;8.76;100.00;99729.09;4930105;29;20124;-75
2022/12/29 01:24:07;;;;;;;8.18;3.58;;;;;;;8.80;100.00;99730.44;4915354;29;20032;-73
2022/12/29 01:26:32;;;;;;;6.25;4.82;;;;;;;8.75;100.00;99732.81;4919754;29;20035;-76
2022/12/29 01:28:58;;;;;;;12.57;5.13;;;;;;;8.76;100.00;99726.41;4937291;29;20083;-76
2022/12/29 01:31:23;;;;;;;5.55;4.45;;;;;;;8.68;100.00;99716.50;4920428;29;20075;-76
2022/12/29 01:33:48;;;;;;;11.00;5.38;;;;;;;8.76;100.00;99715.59;4936711;29;20020;-76
2022/12/29 01:36:18;;;;;;;10.60;4.55;;;;;;;8.65;100.00;99705.19;4919698;29;20027;-74
2022/12/29 01:38:44;;;;;;;8.68;4.93;;;;;;;8.83;100.00;99707.66;4919994;29;20110;-74
2022/12/29 01:41:11;;;;;;;14.98;5.10;;;;;;;8.88;100.00;99706.13;4937229;29;20024;-76
2022/12/29 01:44:28;;;;;;;7.63;5.35;;;;;;;8.75;100.00;99703.13;4920001;29;20090;-74
2022/12/29 01:46:54;;;;;;;8.80;5.60;;;;;;;8.69;100.00;99701.97;4924481;29;20095;-74
2022/12/29 01:49:23;;;;;;;9.52;7.45;;;;;;;8.73;100.00;99697.06;4936035;29;20035;-74
2022/12/29 01:51:55;;;;;;;6.43;5.43;;;;;;;8.70;100.00;99702.81;4935437;29;20051;-74
2022/12/29 01:54:34;;;;;;;8.82;5.55;;;;;;;8.61;100.00;99698.47;4919713;29;20051;-74
2022/12/29 01:57:04;;;;;;;12.30;7.00;;;;;;;8.75;100.00;99697.75;4932086;29;20035;-74
2022/12/29 01:59:34;;;;;;;10.40;7.45;;;;;;;8.72;100.00;99706.16;4936833;29;20024;-74
2022/12/29 02:02:01;;;;;;;11.18;8.02;;;;;;;8.59;100.00;99689.69;4919418;29;20035;-74
2022/12/29 02:04:30;;;;;;;14.52;9.23;;;;;;;8.51;100.00;99687.03;4919293;29;20026;-73
2022/12/29 02:07:07;;;;;;;12.38;8.50;;;;;;;8.67;100.00;99697.75;4934738;29;20038;-74
2022/12/29 02:09:33;;;;;;;13.27;8.60;;;;;;;8.67;100.00;99692.34;4919721;29;20019;-74
2022/12/29 02:11:59;;;;;;;12.68;8.45;;;;;;;8.54;100.00;99686.69;4935619;29;20023;-74
2022/12/29 02:14:25;;;;;;;18.77;10.45;;;;;;;8.56;100.00;99698.16;4928587;29;20023;-74
2022/12/29 02:17:21;;;;;;;18.17;9.70;;;;;;;8.52;100.00;99683.31;4929753;29;20031;-73
2022/12/29 02:20:07;;;;;;;12.55;9.55;;;;;;;8.43;100.00;99686.06;4920271;29;20144;-74
2022/12/29 02:23:19;;;;;;;12.80;9.63;;;;;;;8.43;100.00;99674.44;4931852;29;20051;-73
2022/12/29 02:26:12;;;;;;;18.98;10.32;;;;;;;8.33;100.00;99653.00;4910393;29;20475;-73
2022/12/29 02:28:59;;;;;;;16.05;8.98;;;;;;;8.43;100.00;99664.47;4925649;29;20029;-73
2022/12/29 02:31:31;;;;;;;18.92;8.93;;;;;;;8.40;100.00;99662.13;4917742;29;20035;-73
2022/12/29 02:34:02;;;;;;;;;;;;;;;8.42;100.00;99661.97;4932144;29;20487;-74
2022/12/29 02:36:46;;;;;;;12.52;8.23;;;;;;;8.41;100.00;99654.84;4908729;29;19919;-73
2022/12/29 02:39:20;;;;;;;7.18;5.93;;;;;;;8.44;100.00;99649.13;4915569;29;20032;-73
2022/12/29 02:42:11;;;;;;;11.27;6.90;;;;;;;8.50;100.00;99636.81;4931890;29;20103;-74
2022/12/29 02:45:04;;;;;;;11.82;6.35;;;;;;;8.52;100.00;99640.16;4922545;29;20023;-75
2022/12/29 02:47:39;;;;;;;7.45;5.40;;;;;;;8.56;100.00;99636.09;4918514;29;20052;-74
2022/12/29 02:50:22;;;;;;;8.73;5.60;;;;;;;8.59;100.00;99624.94;4918453;29;20047;-74
2022/12/29 02:52:57;;;;;;;10.88;5.93;;;;;;;8.61;100.00;99639.13;4916135;29;20051;-74
2022/12/29 02:55:22;;;;;;;9.07;5.35;;;;;;;8.61;100.00;99633.72;4915034;29;20026;-74
2022/12/29 02:57:47;;;;;;;7.65;5.55;;;;;;;8.63;100.00;99629.81;4931891;29;20092;-74
2022/12/29 03:00:17;;;;;;;14.80;6.13;;;;;;;8.64;100.00;99617.19;4915837;29;20036;-74
2022/12/29 03:03:15;;;;;;;5.80;4.55;;;;;;;8.81;100.00;99624.19;4915381;29;20034;-74
2022/12/29 03:05:59;;;;;;;6.43;4.95;;;;;;;8.73;100.00;99626.91;4909192;29;20024;-75
2022/12/29 03:08:49;;;;;;;6.00;4.53;;;;;;;8.75;100.00;99618.66;4915814;29;20035;-74
2022/12/29 03:17:00;;;;;;;14.48;5.07;;;;;;;9.02;100.00;99620.84;4923355;29;20031;-75
2022/12/29 03:19:30;;;;;;;6.63;4.82;;;;;;;8.93;100.00;99601.16;4925455;29;20024;-75
2022/12/29 03:24:52;;;;;;;8.73;5.22;;;;;;;8.91;100.00;99586.97;4929799;29;20019;-76
2022/12/29 03:27:28;;;;;;;11.25;4.35;;;;;;;8.93;100.00;99584.97;4933679;29;20031;-74
2022/12/29 03:30:00;;;;;;;7.88;4.13;;;;;;;8.97;100.00;99580.88;4918635;29;20047;-74
2022/12/29 03:32:34;;;;;;;8.15;4.15;;;;;;;8.91;100.00;99581.59;4917664;29;20029;-74
2022/12/29 03:35:01;;;;;;;9.93;4.35;;;;;;;9.00;100.00;99568.91;4928969;29;20019;-74
2022/12/29 03:37:40;;;;;;;5.15;3.60;;;;;;;8.99;100.00;99567.19;4917544;29;20075;-74
2022/12/29 03:40:06;;;;;;;6.78;4.07;;;;;;;9.07;100.00;99569.00;4935049;29;20023;-74
2022/12/29 03:42:35;;;;;;;7.20;4.07;;;;;;;8.97;100.00;99577.34;4934469;29;20031;-74
2022/12/29 03:45:00;;;;;;;9.20;4.30;;;;;;;9.10;100.00;99569.47;4934406;29;20445;-73
2022/12/29 03:47:25;;;;;;;7.22;3.60;;;;;;;8.98;100.00;99577.16;4940859;28;20035;-76
2022/12/29 03:49:52;;;;;;;7.28;3.40;;;;;;;9.00;100.00;99584.22;4917761;29;20063;-76
2022/12/29 03:52:17;;;;;;;5.47;3.30;;;;;;;8.97;100.00;99580.88;4917858;29;20040;-76
2022/12/29 03:54:43;;;;;;;4.03;3.60;;;;;;;9.09;100.00;99572.34;4935121;29;20038;-76
2022/12/29 03:57:10;;;;;;;4.75;3.17;;;;;;;9.07;100.00;99569.00;4933498;29;20391;-74
2022/12/29 03:59:35;;;;;;;4.95;3.55;;;;;;;9.06;100.00;99567.31;4917939;29;20024;-74
2022/12/29 04:02:01;;;;;;;6.28;3.53;;;;;;;9.09;100.00;99572.34;4917132;29;20038;-74
2022/12/29 04:04:26;;;;;;;4.88;3.30;;;;;;;9.05;100.00;99576.44;4917334;29;20020;-74
2022/12/29 04:06:52;;;;;;;7.07;3.33;;;;;;;8.93;100.00;99557.97;4917632;29;20486;-75
2022/12/29 04:09:17;;;;;;;3.30;2.97;;;;;;;9.00;100.00;99551.81;4933314;29;20074;-74
2022/12/29 04:11:42;;;;;;;5.97;2.70;;;;;;;8.93;100.00;99541.78;4917214;29;20023;-74
2022/12/29 04:14:08;;;;;;;6.53;3.00;;;;;;;9.01;100.00;99550.84;4933096;29;20028;-74
2022/12/29 04:16:35;;;;;;;6.28;3.05;;;;;;;8.95;100.00;99547.81;4913620;29;20115;-74
2022/12/29 04:19:01;;;;;;;5.40;3.28;;;;;;;9.01;100.00;99545.44;4909573;29;20020;-74
2022/12/29 04:21:27;;;;;;;3.55;2.58;;;;;;;9.08;100.00;99543.69;4898146;29;20024;-75
2022/12/29 04:23:52;;;;;;;4.72;2.75;;;;;;;9.03;100.00;99541.53;4898388;29;20047;-74
2022/12/29 04:26:18;;;;;;;3.55;2.78;;;;;;;9.02;100.00;99550.66;4913193;29;20059;-75
2022/12/29 04:28:43;;;;;;;8.52;3.15;;;;;;;9.00;100.00;99541.91;4916052;29;20040;-75
2022/12/29 04:31:09;;;;;;;4.68;3.10;;;;;;;8.98;100.00;99544.75;4914904;29;20059;-75
2022/12/29 04:33:34;;;;;;;3.25;2.88;;;;;;;9.05;100.00;99549.44;4898585;29;20028;-74
2022/12/29 04:35:59;;;;;;;9.38;2.53;;;;;;;9.04;100.00;99536.97;4898113;29;20024;-74
2022/12/29 04:38:25;;;;;;;4.03;2.70;;;;;;;8.90;100.00;99520.53;4897907;29;20024;-74
2022/12/29 04:40:51;;;;;;;3.35;2.72;;;;;;;8.87;100.00;99512.81;4898404;29;20023;-74
2022/12/29 04:43:18;;;;;;;3.72;2.50;;;;;;;8.93;100.00;99524.72;4898482;29;20492;-74
2022/12/29 04:45:45;;;;;;;9.48;3.13;;;;;;;8.84;100.00;99521.25;4896083;29;20070;-75
2022/12/29 04:48:10;;;;;;;4.82;2.83;;;;;;;8.85;100.00;99517.53;4911054;29;20027;-74
2022/12/29 04:50:36;;;;;;;4.00;2.58;;;;;;;8.95;100.00;99512.75;4915301;29;20026;-74
2022/12/29 04:53:01;;;;;;;6.85;2.50;;;;;;;8.94;100.00;99516.47;4898699;29;20020;-75
2022/12/29 04:55:27;;;;;;;5.00;2.60;;;;;;;8.97;100.00;99510.69;4898337;29;20062;-75
2022/12/29 04:57:52;;;;;;;5.28;3.00;;;;;;;8.95;100.00;99496.53;4914796;29;20103;-74
2022/12/29 05:00:17;;;;;;;5.00;2.80;;;;;;;8.95;100.00;99506.50;4914576;29;20028;-75
2022/12/29 05:02:43;;;;;;;3.53;2.47;;;;;;;9.00;100.00;99503.25;4897725;29;20047;-74
2022/12/29 05:05:09;;;;;;;4.55;2.42;;;;;;;9.03;100.00;99502.88;4913500;29;20024;-74
2022/12/29 05:07:34;;;;;;;10.07;3.13;;;;;;;9.04;100.00;99500.00;4898730;29;20027;-75
2022/12/29 05:10:00;;;;;;;3.65;2.67;;;;;;;8.93;100.00;99493.19;4914429;29;20087;-74
2022/12/29 05:12:25;;;;;;;5.90;2.78;;;;;;;8.96;100.00;99503.63;4897600;29;20028;-74
2022/12/29 05:14:50;;;;;;;5.25;2.83;;;;;;;8.97;100.00;99494.50;4897466;29;20479;-75
2022/12/29 05:17:16;;;;;;;6.15;3.50;;;;;;;8.96;100.00;99505.47;4912805;29;20074;-74
2022/12/29 05:19:41;;;;;;;7.85;2.60;;;;;;;9.00;100.00;99503.25;4903389;29;20032;-74
2022/12/29 05:22:07;;;;;;;4.85;3.10;;;;;;;9.06;100.00;99502.50;4898184;29;20023;-74
2022/12/29 05:24:32;;;;;;;4.18;3.08;;;;;;;9.07;100.00;99501.50;4897578;29;20020;-74
2022/12/29 05:26:57;;;;;;;6.55;3.60;;;;;;;9.00;100.00;99511.34;4897869;29;20035;-74
2022/12/29 05:29:23;;;;;;;11.25;4.10;;;;;;;9.01;100.00;99507.63;4897711;29;20115;-75
2022/12/29 05:31:48;;;;;;;7.10;4.07;;;;;;;9.09;100.00;99491.38;4898454;29;20043;-75
2022/12/29 05:34:13;;;;;;;10.20;4.50;;;;;;;9.09;100.00;99502.16;4898142;29;20036;-75
2022/12/29 05:36:39;;;;;;;10.13;4.63;;;;;;;9.08;100.00;99500.50;4910421;29;20024;-75
2022/12/29 05:39:07;;;;;;;8.45;4.85;;;;;;;9.08;100.00;99489.69;4893525;29;20103;-75
2022/12/29 05:41:33;;;;;;;6.40;4.05;;;;;;;9.22;100.00;99491.56;4897068;29;20028;-75
2022/12/29 05:43:59;;;;;;;8.00;4.55;;;;;;;9.23;100.00;99487.84;4897202;29;20083;-75
2022/12/29 05:46:24;;;;;;;5.50;3.00;;;;;;;9.22;100.00;99492.41;4912596;29;20139;-75
2022/12/29 05:48:49;;;;;;;4.35;3.13;;;;;;;9.30;100.00;99515.81;4914782;29;20435;-75
2022/12/29 05:51:15;;;;;;;4.93;3.20;;;;;;;9.30;100.00;99499.59;4914041;29;20035;-75
2022/12/29 05:53:40;;;;;;;5.68;2.97;;;;;;;9.43;100.00;99510.59;4896899;29;20024;-75
2022/12/29 05:56:06;;;;;;;6.13;2.83;;;;;;;9.46;100.00;99504.84;4896706;29;20047;-75
2022/12/29 05:58:31;;;;;;;8.95;2.75;;;;;;;9.49;100.00;99509.03;4912208;29;20030;-75
2022/12/29 06:00:56;;;;;;;3.20;2.50;;;;;;;9.59;100.00;99498.81;4896878;29;20095;-75
2022/12/29 06:03:22;;;;;;;4.65;2.78;;;;;;;9.74;100.00;99509.59;4913822;29;20049;-75
2022/12/29 06:05:47;;;;;;;4.13;1.92;;;;;;;9.84;100.00;99502.03;4897021;29;20028;-75
2022/12/29 06:08:13;;;;;;;4.15;2.13;;;;;;;9.82;100.00;99504.09;4912923;29;20091;-75
2022/12/29 06:10:38;;;;;;;3.15;1.88;;;;;;;9.94;100.00;99508.00;4897396;29;20083;-76
2022/12/29 06:13:05;;;;;;;2.63;1.75;;;;;;;10.09;100.00;99510.69;4899319;29;20031;-75
2022/12/29 06:15:34;;;;;;;5.85;1.83;;;;;;;10.13;100.00;99532.81;4916590;29;20480;-76
2022/12/29 06:17:59;;;;;;;3.25;1.60;;;;;;;10.22;100.00;99521.69;4940497;28;20092;-76
2022/12/29 06:20:25;;;;;;;6.70;1.92;;;;;;;10.19;100.00;99515.81;4919512;29;20118;-75
2022/12/29 06:22:50;;;;;;;3.42;1.83;;;;;;;10.29;100.00;99521.78;4919754;29;20172;-75
2022/12/29 06:25:16;;;;;;;6.80;2.05;;;;;;;10.20;100.00;99528.31;4919060;29;20067;-75
2022/12/29 06:27:42;;;;;;;4.07;1.80;;;;;;;10.26;100.00;99522.19;4936091;29;20039;-75
2022/12/29 06:30:08;;;;;;;5.30;2.47;;;;;;;10.27;100.00;99523.84;4919518;29;20491;-76
2022/12/29 06:32:34;;;;;;;2.28;1.60;;;;;;;10.04;100.00;99516.69;4919277;29;20032;-74
2022/12/29 06:35:00;;;;;;;1.58;1.20;;;;;;;10.07;100.00;99505.47;4918572;29;20016;-74
2022/12/29 06:37:25;;;;;;;3.30;1.55;;;;;;;10.15;100.00;99526.16;4918527;29;20019;-73
2022/12/29 06:39:50;;;;;;;2.35;1.55;;;;;;;10.02;100.00;99507.91;4950643;28;20039;-73
2022/12/29 06:42:16;;;;;;;3.53;1.50;;;;;;;10.03;100.00;99512.28;4933696;29;20028;-73
2022/12/29 06:44:41;;;;;;;3.78;1.65;;;;;;;10.09;100.00;99520.69;4918211;29;20035;-73
2022/12/29 06:47:07;;;;;;;7.40;2.28;;;;;;;10.05;100.00;99522.94;4926478;29;20032;-77
2022/12/29 06:49:32;;;;;;;3.08;1.50;;;;;;;9.83;100.00;99505.78;4951202;28;20023;-78
2022/12/29 06:51:59;;;;;;;5.53;1.90;;;;;;;9.95;100.00;99504.28;4919485;29;20479;-77
2022/12/29 06:54:25;;;;;;;2.70;1.48;;;;;;;9.93;100.00;99502.81;4919136;29;20173;-79
2022/12/29 06:56:50;;;;;;;3.42;1.80;;;;;;;9.82;100.00;99493.28;4935942;29;20480;-77
2022/12/29 06:59:15;;;;;;;3.33;1.80;;;;;;;9.83;100.00;99492.25;4934922;29;20028;-74
2022/12/29 07:01:41;;;;;;;2.42;1.15;;;;;;;9.95;100.00;99493.47;4918848;29;20471;-73
2022/12/29 07:04:06;;;;;;;4.57;1.33;;;;;;;9.92;100.00;99493.84;4935215;29;20024;-73
2022/12/29 07:06:31;;;;;;;3.95;1.10;;;;;;;9.88;100.00;99503.34;4934307;29;20031;-73
2022/12/29 07:08:57;;;;;;;2.58;1.17;;;;;;;9.85;100.00;99498.34;4934996;29;20083;-73
2022/12/29 07:11:23;;;;;;;3.15;1.52;;;;;;;9.99;100.00;99494.78;4917421;29;20081;-73
2022/12/29 07:13:49;;;;;;;2.55;1.50;;;;;;;10.02;100.00;99493.56;4932978;29;20491;-73
2022/12/29 07:16:14;;;;;;;1.20;1.10;;;;;;;10.00;100.00;99491.03;4930106;29;20028;-73
2022/12/29 07:18:39;;;;;;;2.55;1.33;;;;;;;9.86;100.00;99500.00;4934654;29;20034;-73
2022/12/29 07:21:05;;;;;;;5.32;1.63;;;;;;;9.83;100.00;99489.56;4918219;29;20023;-73
2022/12/29 07:23:30;;;;;;;4.70;2.20;;;;;;;9.95;100.00;99493.47;4934166;29;20087;-73
2022/12/29 07:26:01;;;;;;;2.80;1.80;;;;;;;9.86;100.00;99493.78;4933242;29;20483;-73
2022/12/29 07:28:26;;;;;;;2.42;1.90;;;;;;;9.82;100.00;99503.25;4917428;29;20587;-73
2022/12/29 07:30:54;;;;;;;5.05;2.30;;;;;;;9.80;100.00;99516.97;4917567;29;20103;-73
2022/12/29 07:33:20;;;;;;;2.78;1.88;;;;;;;9.80;100.00;99516.97;4932859;29;20051;-75
2022/12/29 07:35:45;;;;;;;2.60;1.98;;;;;;;9.93;100.00;99511.75;4933610;29;20186;-73
2022/12/29 07:38:10;;;;;;;10.25;2.47;;;;;;;9.67;100.00;99505.97;4934304;29;20035;-73
2022/12/29 07:40:36;;;;;;;6.63;2.42;;;;;;;9.82;100.00;99512.22;4932854;29;20043;-73
2022/12/29 07:43:01;;;;;;;3.72;2.25;;;;;;;9.71;100.00;99529.72;4916737;29;20027;-73
2022/12/29 07:45:27;;;;;;;10.40;2.35;;;;;;;9.77;100.00;99538.94;4917918;29;20024;-71
2022/12/29 07:47:52;;;;;;;6.65;2.35;;;;;;;9.80;100.00;99516.97;4949081;28;20035;-72
2022/12/29 07:50:17;;;;;;;5.75;2.53;;;;;;;9.68;100.00;99500.38;4901859;29;20039;-73
2022/12/29 07:52:43;;;;;;;5.63;2.90;;;;;;;9.62;100.00;99514.63;4907723;29;20023;-73
2022/12/29 07:55:08;;;;;;;4.82;2.50;;;;;;;9.55;100.00;99523.66;4902779;29;20141;-73
2022/12/29 07:57:34;;;;;;;8.52;2.50;;;;;;;9.68;100.00;99523.88;4908987;29;20357;-73
2022/12/29 07:59:59;;;;;;;11.48;2.85;;;;;;;9.63;100.00;99531.69;4926780;29;20083;-72
2022/12/29 08:02:26;;;;;;;3.83;2.30;;;;;;;9.59;100.00;99525.00;4909658;29;20102;-72
2022/12/29 08:04:51;;;;;;;5.72;2.10;;;;;;;9.61;100.00;99517.53;4940698;29;20030;-72
2022/12/29 08:07:17;;;;;;;7.18;2.20;;;;;;;9.55;100.00;99523.66;4925300;29;20035;-72
2022/12/29 08:09:42;;;;;;;5.90;1.80;;;;;;;9.60;100.00;99521.25;4912623;29;20098;-72
2022/12/29 08:12:10;;;;;;;3.95;2.00;;;;;;;9.61;100.00;99539.16;4938721;29;20035;-72
2022/12/29 08:14:36;;;;;;;6.10;2.10;;;;;;;9.59;100.00;99536.63;4935549;28;20028;-71
2022/12/29 08:17:01;;;;;;;6.80;1.88;;;;;;;9.36;100.00;99536.69;4922758;29;20038;-71
2022/12/29 08:19:27;;;;;;;5.20;1.75;;;;;;;9.45;100.00;99541.00;4925425;29;20035;-71
2022/12/29 08:21:53;;;;;;;5.03;1.92;;;;;;;9.51;100.00;99545.63;4917591;29;20034;-71
2022/12/29 08:24:18;;;;;;;10.50;2.33;;;;;;;9.58;100.00;99544.91;4920422;29;20075;-71
2022/12/29 08:26:44;;;;;;;6.80;1.90;;;;;;;9.48;100.00;99561.38;4918430;29;20143;-71
2022/12/29 08:29:09;;;;;;;5.88;1.85;;;;;;;9.61;100.00;99555.34;4921109;29;20023;-71
2022/12/29 08:31:34;;;;;;;3.50;1.50;;;;;;;9.63;100.00;99564.09;4922736;29;20028;-70
2022/12/29 08:34:01;;;;;;;3.17;1.60;;;;;;;9.59;100.00;99562.81;4918954;29;20023;-70
2022/12/29 08:36:26;;;;;;;3.33;1.50;;;;;;;9.64;100.00;99571.19;4916223;29;20024;-71
2022/12/29 08:38:52;;;;;;;2.95;2.03;;;;;;;9.70;100.00;99575.84;4925902;29;20697;-71
2022/12/29 08:41:17;;;;;;;5.03;2.05;;;;;;;9.72;100.00;99581.94;4926439;29;20043;-71
2022/12/29 08:43:46;;;;;;;6.35;1.27;;;;;;;9.73;100.00;99570.94;4916908;29;20423;-73
2022/12/29 08:46:12;;;;;;;10.18;2.00;;;;;;;9.83;100.00;99570.66;4915455;29;20039;-71
2022/12/29 08:48:37;;;;;;;4.05;1.55;;;;;;;9.98;100.00;99574.22;4938679;29;20514;-71
2022/12/29 08:51:02;;;;;;;4.35;1.63;;;;;;;9.76;100.00;99570.56;4915533;29;20031;-74
2022/12/29 08:53:28;;;;;;;6.55;1.58;;;;;;;9.83;100.00;99564.41;4940001;29;20081;-73
2022/12/29 08:55:58;;;;;;;9.60;1.98;;;;;;;9.88;100.00;99573.63;4930109;29;20115;-72
2022/12/29 08:58:25;;;;;;;6.40;1.67;;;;;;;9.87;100.00;99577.38;4925390;29;20110;-73
2022/12/29 09:00:54;;;;;;;5.55;1.60;;;;;;;9.89;100.00;99579.88;4925723;29;20027;-73
2022/12/29 09:03:20;;;;;;;10.85;2.38;;;;;;;9.96;100.00;99597.88;4923070;29;20066;-72
2022/12/29 09:05:50;;;;;;;3.13;1.42;;;;;;;9.95;100.00;99590.78;4920157;29;20150;-73
2022/12/29 09:08:16;;;;;;;3.45;1.20;;;;;;;9.95;100.00;99585.38;4923080;29;20035;-73
2022/12/29 09:10:42;;;;;;;9.07;1.35;;;;;;;9.94;100.00;99589.13;4921974;29;20183;-73
2022/12/29 09:13:08;;;;;;;9.50;1.75;;;;;;;9.97;100.00;99583.34;4939114;29;20020;-73
2022/12/29 09:15:33;;;;;;;6.15;2.00;;;;;;;10.00;100.00;99610.00;4936962;29;20024;-73
2022/12/29 09:17:58;;;;;;;8.50;1.40;;;;;;;10.03;100.00;99584.44;4939241;28;20023;-73
2022/12/29 09:20:24;;;;;;;4.43;1.42;;;;;;;10.03;100.00;99603.38;4924724;29;20387;-74
2022/12/29 09:22:49;;;;;;;5.03;1.38;;;;;;;10.11;100.00;99594.38;4920225;29;20008;-73
2022/12/29 09:25:15;;;;;;;7.55;1.40;;;;;;;10.03;100.00;99593.41;4925476;29;20036;-74
2022/12/29 09:27:41;;;;;;;6.70;1.95;;;;;;;10.06;100.00;99601.16;4917765;29;20111;-75
2022/12/29 09:30:10;;;;;;;9.52;1.42;;;;;;;10.15;100.00;99606.47;4941128;29;20119;-71
2022/12/29 09:32:36;;;;;;;7.28;1.75;;;;;;;10.10;100.00;99603.47;4919224;29;20482;-70
2022/12/29 09:35:01;;;;;;;4.40;1.52;;;;;;;10.12;100.00;99606.84;4941000;29;20100;-71
2022/12/29 09:37:27;;;;;;;8.02;1.50;;;;;;;10.04;100.00;99597.81;4932829;29;20079;-71
2022/12/29 09:39:52;;;;;;;8.50;1.70;;;;;;;10.07;100.00;99605.53;4933257;29;20055;-70
2022/12/29 09:42:53;;;;;;;8.68;1.67;;;;;;;10.09;100.00;99623.44;4923655;29;20055;-71
2022/12/29 09:45:27;;;;;;;7.10;1.80;;;;;;;10.11;100.00;99632.22;4930666;29;20063;-71
2022/12/29 09:47:53;;;;;;;9.48;1.95;;;;;;;9.89;100.00;99626.69;4921461;29;20071;-71
2022/12/29 09:50:35;;;;;;;7.88;2.42;;;;;;;10.09;100.00;99639.66;4916984;29;20063;-71
2022/12/29 09:53:25;;;;;;;11.63;2.28;;;;;;;10.02;100.00;99628.75;4943887;28;20028;-71
2022/12/29 09:55:55;;;;;;;10.30;1.70;;;;;;;10.07;100.00;99631.75;4932288;29;20035;-70
2022/12/29 09:58:25;;;;;;;10.57;2.08;;;;;;;9.99;100.00;99624.56;4929787;29;20036;-69
2022/12/29 10:00:58;;;;;;;6.32;1.70;;;;;;;10.11;100.00;99624.13;4941558;29;20027;-70
2022/12/29 10:03:32;;;;;;;9.93;2.80;;;;;;;10.11;100.00;99632.22;4942406;29;20040;-70
2022/12/29 10:06:22;;;;;;;8.27;1.92;;;;;;;10.10;100.00;99646.75;4937611;29;20061;-70
2022/12/29 10:09:00;;;;;;;8.73;1.98;;;;;;;10.10;100.00;99641.34;4922685;29;20043;-71
2022/12/29 10:11:51;;;;;;;11.25;1.73;;;;;;;10.32;100.00;99643.16;4941670;28;20028;-70
2022/12/29 10:14:54;;;;;;;11.77;2.10;;;;;;;10.35;100.00;99650.06;4924572;29;20036;-70
2022/12/29 10:17:31;;;;;;;7.38;1.67;;;;;;;10.24;100.00;99649.50;4924160;29;20040;-71
2022/12/29 10:20:07;;;;;;;9.40;2.38;;;;;;;10.09;100.00;99655.88;4916511;29;20032;-70
2022/12/29 10:23:01;;;;;;;14.80;2.05;;;;;;;10.24;100.00;99662.19;4926812;29;20443;-70
2022/12/29 10:25:30;;;;;;;10.73;2.33;;;;;;;10.20;100.00;99652.72;4931093;29;20209;-70
2022/12/29 10:28:01;;;;;;;6.18;1.60;;;;;;;10.38;100.00;99649.69;4921813;29;20056;-70
2022/12/29 10:30:26;;;;;;;11.35;2.15;;;;;;;10.29;100.00;99643.53;4916979;29;20028;-72
2022/12/29 10:32:57;;;;;;;7.95;1.88;;;;;;;10.38;100.00;99650.53;4935932;29;20024;-70
2022/12/29 10:35:23;;;;;;;12.52;2.38;;;;;;;10.22;100.00;99656.09;4911451;29;20031;-72
2022/12/29 10:37:55;;;;;;;7.90;1.98;;;;;;;10.17;100.00;99647.69;4935971;28;20083;-69
2022/12/29 10:40:38;;;;;;;11.55;2.13;;;;;;;10.33;100.00;99631.31;4926214;29;20051;-69
2022/12/29 10:43:24;;;;;;;4.10;1.42;;;;;;;10.50;99.63;99638.22;4919433;29;20027;-70
2022/12/29 10:45:50;;;;;;;14.85;1.90;;;;;;;10.44;99.89;99627.31;4913518;28;20421;-71
2022/12/29 10:48:22;;;;;;;13.98;2.22;;;;;;;10.51;98.87;99639.91;4923802;29;20107;-70
2022/12/29 10:50:49;;;;;;;20.25;2.25;;;;;;;10.46;99.32;99636.91;4924834;29;20122;-70
2022/12/29 10:53:22;;;;;;;11.90;2.50;;;;;;;10.57;98.11;99614.78;4925522;29;20479;-71
2022/12/29 10:55:49;;;;;;;11.38;2.15;;;;;;;10.37;98.75;99632.63;4919581;29;20039;-70
2022/12/29 10:58:15;;;;;;;16.83;2.22;;;;;;;10.46;98.46;99626.06;4910373;29;20091;-71
2022/12/29 11:00:42;;;;;;;14.93;2.92;;;;;;;10.29;98.60;99630.84;4909929;29;20111;-70
2022/12/29 11:03:45;;;;;;;10.23;1.90;;;;;;;10.49;97.72;99631.09;4909611;29;20032;-70
2022/12/29 11:06:18;;;;;;;16.00;2.28;;;;;;;10.48;97.62;99629.44;4925763;29;20028;-70
2022/12/29 11:09:21;;;;;;;11.30;2.65;;;;;;;10.43;98.00;99637.28;4917723;29;20024;-69
2022/12/29 11:11:46;;;;;;;13.55;2.33;;;;;;;10.46;98.08;99626.06;4914568;29;20036;-69
2022/12/29 11:14:25;;;;;;;11.13;1.83;;;;;;;10.56;97.21;99632.06;4919203;29;20119;-71
2022/12/29 11:17:03;;;;;;;14.50;2.22;;;;;;;10.44;98.20;99628.16;4920103;29;20427;-71
2022/12/29 11:19:31;;;;;;;16.27;2.13;;;;;;;10.40;97.65;99632.25;4912346;29;20035;-71
2022/12/29 11:22:29;;;;;;;9.82;1.88;;;;;;;10.38;98.56;99612.66;4926513;29;20046;-69
2022/12/29 11:25:06;;;;;;;12.52;1.65;;;;;;;10.56;97.34;99623.94;4907023;29;20043;-71
2022/12/29 11:27:32;;;;;;;16.73;2.88;;;;;;;10.65;95.48;99618.41;4932668;29;20043;-70
2022/12/29 11:29:58;;;;;;;11.25;2.17;;;;;;;10.73;96.90;99621.00;4918139;29;20106;-70
2022/12/29 11:32:25;;;;;;;11.98;2.00;;;;;;;10.73;95.56;99621.00;4935478;29;20122;-70
2022/12/29 11:34:51;;;;;;;19.35;2.30;;;;;;;10.64;95.55;99617.56;4933843;29;20582;-72
2022/12/29 11:37:29;;;;;;;12.07;1.98;;;;;;;10.63;95.35;99626.72;4935734;29;20067;-71
2022/12/29 11:39:59;;;;;;;10.00;2.03;;;;;;;10.53;94.58;99627.00;4918362;29;20531;-71
2022/12/29 11:42:51;;;;;;;11.55;1.95;;;;;;;10.51;94.56;99618.25;4917679;29;20034;-70
2022/12/29 11:45:21;;;;;;;;;;;;;;;10.55;94.84;99624.09;4910465;29;20123;-70
2022/12/29 11:48:00;;;;;;;13.18;1.52;;;;;;;10.51;93.69;99620.94;4918290;29;19918;-70
2022/12/29 11:50:33;;;;;;;7.60;1.50;;;;;;;10.52;94.40;99625.31;4918294;29;20051;-71
2022/12/29 11:53:42;;;;;;;4.78;1.60;;;;;;;10.54;94.55;99623.25;4928007;29;20471;-70
2022/12/29 11:56:17;;;;;;;15.23;2.45;;;;;;;10.42;95.60;99630.19;4924738;28;20035;-70
2022/12/29 11:58:43;;;;;;;8.60;1.95;;;;;;;10.43;95.63;99631.00;4928540;29;20034;-71
2022/12/29 12:01:23;;;;;;;7.70;1.63;;;;;;;10.33;95.88;99604.25;4918533;29;20027;-70
2022/12/29 12:04:05;;;;;;;5.40;1.45;;;;;;;10.45;95.18;99619.00;4918227;29;20051;-70
2022/12/29 12:06:36;;;;;;;7.68;1.73;;;;;;;10.30;96.42;99642.50;4917087;29;20027;-71
2022/12/29 12:09:10;;;;;;;3.08;1.08;;;;;;;10.39;96.54;99646.81;4918817;29;20059;-73
2022/12/29 12:11:43;;;;;;;9.90;2.17;;;;;;;10.41;97.29;99644.75;4918718;29;20024;-73
2022/12/29 12:14:19;;;;;;;8.23;2.13;;;;;;;10.25;96.97;99644.94;4919403;29;20036;-73
2022/12/29 12:16:55;;;;;;;11.88;1.80;;;;;;;10.25;97.58;99644.94;4930621;29;20032;-72
2022/12/29 12:19:47;;;;;;;8.65;1.73;;;;;;;10.16;97.75;99656.81;4928009;29;20099;-72